createdAt,value
2022-09-03T00:00:16.073Z,0.00
2022-09-03T00:15:16.674Z,0.00
2022-09-03T00:30:17.341Z,0.00
2022-09-03T00:45:18.529Z,0.00
2022-09-03T01:00:19.141Z,0.00
2022-09-03T01:15:19.430Z,0.00
2022-09-03T01:30:21.084Z,0.00
2022-09-03T01:45:21.463Z,0.00
2022-09-03T02:00:21.715Z,0.00
2022-09-03T02:15:22.286Z,0.00
2022-09-03T02:30:23.102Z,0.00
2022-09-03T02:45:23.881Z,0.00
2022-09-03T03:00:25.594Z,0.00
2022-09-03T03:15:25.819Z,0.00
2022-09-03T03:30:26.083Z,0.00
2022-09-03T03:45:27.627Z,0.00
2022-09-03T04:00:28.964Z,16.00
2022-09-03T04:15:29.226Z,88.00
2022-09-03T04:30:30.368Z,252.00
2022-09-03T04:45:30.858Z,444.00
2022-09-03T05:00:32.356Z,940.00
2022-09-03T05:15:34.060Z,1540.00
2022-09-03T05:30:34.510Z,2172.00
2022-09-03T05:45:34.600Z,2752.00
2022-09-03T06:00:34.766Z,3696.00
2022-09-03T06:15:34.894Z,4040.00
2022-09-03T06:30:35.034Z,3672.00
2022-09-03T06:45:35.263Z,3876.00
2022-09-03T07:00:37.091Z,6436.00
2022-09-03T07:15:38.670Z,6000.00
2022-09-03T07:30:38.829Z,7136.00
2022-09-03T07:45:39.075Z,8396.00
2022-09-03T08:00:41.236Z,9752.00
2022-09-03T08:15:43.207Z,12488.00
2022-09-03T08:30:44.363Z,13880.00
2022-09-03T08:45:46.221Z,14024.00
2022-09-03T09:00:47.610Z,18336.00
2022-09-03T09:15:49.142Z,20416.00
2022-09-03T09:30:51.366Z,24992.00
2022-09-03T09:45:52.449Z,33472.00
2022-09-03T10:00:53.200Z,38560.00
2022-09-03T10:15:53.326Z,49568.00
2022-09-03T10:30:54.064Z,47904.00
2022-09-03T10:45:54.576Z,58336.00
2022-09-03T11:00:54.656Z,11364.00
2022-09-03T11:15:56.334Z,77856.00
2022-09-03T11:30:57.655Z,20864.00
2022-09-03T11:45:58.118Z,15600.00
2022-09-03T12:00:59.936Z,16768.00
2022-09-03T12:16:01.387Z,16736.00
2022-09-03T12:31:02.675Z,28288.00
2022-09-03T12:46:11.595Z,13104.00
2022-09-03T13:01:10.546Z,14812.00
2022-09-03T13:16:10.934Z,18176.00
2022-09-03T13:31:11.028Z,32128.00
2022-09-03T13:46:11.168Z,13544.00
2022-09-03T14:01:11.185Z,10992.00
2022-09-03T14:16:11.309Z,16340.00
2022-09-03T14:31:12.635Z,13256.00
2022-09-03T14:46:12.754Z,42016.00
2022-09-03T15:01:14.125Z,10976.00
2022-09-03T15:16:17.809Z,17504.00
2022-09-03T15:31:19.628Z,12216.00
2022-09-03T15:46:19.667Z,9300.00
2022-09-03T16:01:21.606Z,5528.00
2022-09-03T16:16:21.653Z,5832.00
2022-09-03T16:31:23.011Z,4008.00
2022-09-03T16:46:25.058Z,2772.00
2022-09-03T17:01:27.390Z,2148.00
2022-09-03T17:16:28.578Z,1184.00
2022-09-03T17:31:28.898Z,704.00
2022-09-03T17:46:30.256Z,312.00
2022-09-03T18:01:31.579Z,68.00
2022-09-03T18:16:32.367Z,4.00
2022-09-03T18:31:34.741Z,0.00
2022-09-03T18:47:47.717Z,0.00
2022-09-03T19:01:41.446Z,0.00
2022-09-03T19:16:41.443Z,0.00
2022-09-03T19:31:42.992Z,0.00
2022-09-03T19:46:42.989Z,0.00
2022-09-03T20:01:43.334Z,0.00
2022-09-03T20:16:43.458Z,0.00
2022-09-03T20:31:43.656Z,0.00
2022-09-03T20:46:43.872Z,0.00
2022-09-03T21:01:44.632Z,0.00
2022-09-03T21:16:44.863Z,0.00
2022-09-03T21:31:45.044Z,0.00
2022-09-03T21:46:45.299Z,0.00
2022-09-03T22:01:45.535Z,0.00
2022-09-03T22:16:45.661Z,0.00
2022-09-03T22:31:45.747Z,0.00
2022-09-03T22:46:45.946Z,0.00
2022-09-03T23:01:46.220Z,0.00
2022-09-03T23:16:46.226Z,0.00
2022-09-03T23:31:46.281Z,0.00
2022-09-03T23:46:47.592Z,0.00
